createdAt,value
2023-05-15T00:00:47.544Z,18.46
2023-05-15T00:03:33.810Z,18.45
2023-05-15T00:06:06.245Z,18.41
2023-05-15T00:08:38.489Z,18.40
2023-05-15T00:11:10.823Z,18.31
2023-05-15T00:13:43.420Z,18.38
2023-05-15T00:16:15.857Z,18.40
2023-05-15T00:18:48.365Z,18.38
2023-05-15T00:21:20.816Z,18.37
2023-05-15T00:23:54.124Z,18.34
2023-05-15T00:26:26.646Z,18.33
2023-05-15T00:28:59.105Z,18.33
2023-05-15T00:31:31.525Z,18.33
2023-05-15T00:34:04.220Z,18.32
2023-05-15T00:36:36.510Z,18.32
2023-05-15T00:39:08.865Z,18.33
2023-05-15T00:41:43.143Z,18.31
2023-05-15T00:44:16.907Z,18.30
2023-05-15T00:46:50.251Z,18.22
2023-05-15T00:49:27.082Z,18.17
2023-05-15T00:52:02.049Z,18.06
2023-05-15T00:54:34.517Z,17.83
2023-05-15T00:57:09.672Z,17.78
2023-05-15T00:59:43.329Z,17.93
2023-05-15T01:02:17.073Z,18.10
2023-05-15T01:04:49.676Z,18.07
2023-05-15T01:07:21.914Z,18.08
2023-05-15T01:09:55.942Z,18.08
2023-05-15T01:12:31.472Z,18.12
2023-05-15T01:15:03.909Z,18.15
2023-05-15T01:17:36.773Z,18.17
2023-05-15T01:20:12.345Z,18.16
2023-05-15T01:23:07.309Z,18.16
2023-05-15T01:26:08.026Z,18.17
2023-05-15T01:28:47.250Z,18.17
2023-05-15T01:31:23.967Z,18.17
2023-05-15T01:34:03.593Z,18.14
2023-05-15T01:36:44.431Z,18.16
2023-05-15T01:39:23.148Z,18.19
2023-05-15T01:42:01.673Z,18.15
2023-05-15T01:44:37.404Z,18.13
2023-05-15T01:47:15.094Z,18.09
2023-05-15T01:49:50.421Z,18.00
2023-05-15T01:52:29.000Z,17.99
2023-05-15T01:55:03.295Z,17.97
2023-05-15T01:57:37.001Z,17.96
2023-05-15T02:00:11.859Z,17.98
2023-05-15T02:02:47.278Z,17.98
2023-05-15T02:05:21.023Z,17.98
2023-05-15T02:07:53.727Z,17.98
2023-05-15T02:10:27.334Z,17.97
2023-05-15T02:13:00.074Z,17.95
2023-05-15T02:15:33.279Z,17.94
2023-05-15T02:18:06.574Z,17.91
2023-05-15T02:20:38.980Z,17.91
2023-05-15T02:23:11.227Z,17.91
2023-05-15T02:25:51.280Z,17.91
2023-05-15T02:28:32.051Z,17.91
2023-05-15T02:31:12.918Z,17.89
2023-05-15T02:33:55.627Z,17.85
2023-05-15T02:36:34.731Z,17.84
2023-05-15T02:39:07.686Z,17.78
2023-05-15T02:41:41.200Z,17.85
2023-05-15T02:44:15.262Z,17.83
2023-05-15T02:46:48.340Z,17.83
2023-05-15T02:49:23.230Z,17.82
2023-05-15T02:51:56.541Z,17.81
2023-05-15T02:54:28.765Z,17.77
2023-05-15T02:57:01.112Z,17.74
2023-05-15T02:59:33.576Z,17.73
2023-05-15T03:02:06.235Z,17.64
2023-05-15T03:04:39.014Z,17.70
2023-05-15T03:07:11.480Z,17.69
2023-05-15T03:09:43.763Z,17.67
2023-05-15T03:12:16.460Z,17.59
2023-05-15T03:14:48.675Z,17.67
2023-05-15T03:17:21.669Z,17.66
2023-05-15T03:19:54.624Z,17.68
2023-05-15T03:22:26.950Z,17.70
2023-05-15T03:25:01.918Z,17.69
2023-05-15T03:27:34.308Z,17.69
2023-05-15T03:30:08.754Z,17.68
2023-05-15T03:32:41.156Z,17.61
2023-05-15T03:35:14.208Z,17.59
2023-05-15T03:37:46.400Z,17.55
2023-05-15T03:40:18.731Z,17.61
2023-05-15T03:42:53.397Z,17.58
2023-05-15T03:45:26.237Z,17.59
2023-05-15T03:47:58.862Z,17.60
2023-05-15T03:50:31.742Z,17.60
2023-05-15T03:53:05.164Z,17.61
2023-05-15T03:55:38.313Z,17.62
2023-05-15T03:58:11.137Z,17.62
2023-05-15T04:00:44.172Z,17.65
2023-05-15T04:03:16.468Z,17.65
2023-05-15T04:05:50.177Z,17.65
2023-05-15T04:08:22.732Z,17.65
2023-05-15T04:10:55.199Z,17.66
2023-05-15T04:13:27.922Z,17.64
2023-05-15T04:16:01.261Z,17.63
2023-05-15T04:18:33.612Z,17.49
2023-05-15T04:21:06.489Z,17.52
2023-05-15T04:23:39.912Z,17.52
2023-05-15T04:26:12.468Z,17.51
2023-05-15T04:28:56.153Z,17.51
2023-05-15T04:31:35.346Z,17.50
2023-05-15T04:34:08.035Z,17.48
2023-05-15T04:36:42.819Z,17.49
2023-05-15T04:39:15.809Z,17.49
2023-05-15T04:41:48.189Z,17.49
2023-05-15T04:44:21.195Z,17.48
2023-05-15T04:46:53.645Z,17.46
2023-05-15T04:49:26.389Z,17.44
2023-05-15T04:51:59.118Z,17.43
2023-05-15T04:54:31.262Z,17.42
2023-05-15T04:57:03.712Z,17.42
2023-05-15T04:59:36.060Z,17.40
2023-05-15T05:02:08.549Z,17.40
2023-05-15T05:04:43.660Z,17.40
2023-05-15T05:07:15.899Z,17.40
2023-05-15T05:09:48.456Z,17.42
2023-05-15T05:12:20.929Z,17.42
2023-05-15T05:14:53.174Z,17.36
2023-05-15T05:17:25.275Z,17.41
2023-05-15T05:19:57.630Z,17.41
2023-05-15T05:22:32.023Z,17.44
2023-05-15T05:25:04.348Z,17.44
2023-05-15T05:27:39.284Z,17.42
2023-05-15T05:30:13.312Z,17.41
2023-05-15T05:32:45.617Z,17.41
2023-05-15T05:35:18.141Z,17.44
2023-05-15T05:37:50.503Z,17.46
2023-05-15T05:40:22.847Z,17.48
2023-05-15T05:42:55.372Z,17.48
2023-05-15T05:45:27.625Z,17.51
2023-05-15T05:48:00.368Z,17.52
2023-05-15T05:50:33.031Z,17.54
2023-05-15T05:53:05.971Z,17.57
2023-05-15T05:55:38.432Z,17.58
2023-05-15T05:58:21.684Z,17.59
2023-05-15T06:00:57.453Z,17.61
2023-05-15T06:03:30.011Z,17.65
2023-05-15T06:06:02.935Z,17.64
2023-05-15T06:08:35.176Z,17.61
2023-05-15T06:11:07.526Z,17.65
2023-05-15T06:13:39.691Z,17.65
2023-05-15T06:16:12.093Z,17.59
2023-05-15T06:18:44.866Z,17.62
2023-05-15T06:21:17.132Z,17.68
2023-05-15T06:23:49.665Z,17.70
2023-05-15T06:26:22.085Z,17.68
2023-05-15T06:28:54.319Z,17.66
2023-05-15T06:31:26.620Z,17.66
2023-05-15T06:33:58.984Z,17.62
2023-05-15T06:36:31.255Z,17.59
2023-05-15T06:39:03.824Z,17.60
2023-05-15T06:41:36.069Z,17.67
2023-05-15T06:44:08.602Z,17.63
2023-05-15T06:46:40.965Z,17.73
2023-05-15T06:49:13.290Z,17.75
2023-05-15T06:51:45.865Z,17.77
2023-05-15T06:54:18.377Z,17.76
2023-05-15T06:56:51.412Z,17.74
2023-05-15T06:59:23.729Z,17.72
2023-05-15T07:01:56.199Z,17.70
2023-05-15T07:04:29.040Z,17.62
2023-05-15T07:07:01.317Z,17.71
2023-05-15T07:09:33.474Z,17.65
2023-05-15T07:12:06.107Z,17.69
2023-05-15T07:14:38.513Z,17.70
2023-05-15T07:17:11.129Z,17.69
2023-05-15T07:19:43.438Z,17.67
2023-05-15T07:22:16.119Z,17.62
2023-05-15T07:24:48.755Z,17.44
2023-05-15T07:27:21.117Z,17.55
2023-05-15T07:29:54.148Z,17.54
2023-05-15T07:32:26.326Z,17.57
2023-05-15T07:34:58.702Z,17.51
2023-05-15T07:37:30.997Z,17.47
2023-05-15T07:40:03.887Z,17.53
2023-05-15T07:42:35.919Z,17.49
2023-05-15T07:45:10.095Z,17.51
2023-05-15T07:47:45.920Z,17.46
2023-05-15T07:50:18.869Z,17.44
2023-05-15T07:52:51.387Z,17.55
2023-05-15T07:55:24.299Z,17.55
2023-05-15T07:57:56.634Z,17.49
2023-05-15T08:00:29.162Z,17.58
2023-05-15T08:03:01.822Z,17.58
2023-05-15T08:05:34.094Z,17.55
2023-05-15T08:08:06.843Z,17.53
2023-05-15T08:10:38.984Z,17.50
2023-05-15T08:13:11.269Z,17.47
2023-05-15T08:15:43.392Z,17.46
2023-05-15T08:18:15.781Z,17.43
2023-05-15T08:20:48.744Z,17.46
2023-05-15T08:23:21.137Z,17.39
2023-05-15T08:25:53.610Z,17.41
2023-05-15T08:28:25.991Z,17.29
2023-05-15T08:30:58.352Z,17.34
2023-05-15T08:33:30.522Z,17.38
2023-05-15T08:36:02.836Z,17.34
2023-05-15T08:38:34.985Z,17.28
2023-05-15T08:41:14.766Z,17.20
2023-05-15T08:43:47.507Z,17.23
2023-05-15T08:46:20.532Z,17.18
2023-05-15T08:48:54.684Z,17.23
2023-05-15T08:51:27.139Z,17.25
2023-05-15T08:53:59.695Z,17.19
2023-05-15T08:56:32.565Z,17.31
2023-05-15T08:59:05.437Z,17.19
2023-05-15T09:01:38.969Z,17.17
2023-05-15T09:04:11.199Z,17.21
2023-05-15T09:06:44.863Z,17.28
2023-05-15T09:09:17.541Z,17.33
2023-05-15T09:11:51.983Z,17.33
2023-05-15T09:14:24.300Z,17.30
2023-05-15T09:16:56.544Z,17.36
2023-05-15T09:19:29.570Z,17.41
2023-05-15T09:22:18.220Z,17.45
2023-05-15T09:24:53.068Z,17.45
2023-05-15T09:27:26.374Z,17.49
2023-05-15T09:30:09.023Z,17.54
2023-05-15T09:32:41.286Z,17.54
2023-05-15T09:35:32.148Z,17.50
2023-05-15T09:38:05.788Z,17.51
2023-05-15T09:40:37.940Z,17.49
2023-05-15T09:43:13.094Z,17.48
2023-05-15T09:45:48.512Z,17.44
2023-05-15T09:48:20.879Z,17.38
2023-05-15T09:50:53.291Z,17.41
2023-05-15T09:53:29.579Z,17.35
2023-05-15T09:56:02.422Z,17.23
2023-05-15T09:58:36.232Z,17.28
2023-05-15T10:01:13.517Z,17.31
2023-05-15T10:03:46.342Z,17.32
2023-05-15T10:06:21.876Z,17.34
2023-05-15T10:08:57.834Z,17.37
2023-05-15T10:11:30.703Z,17.42
2023-05-15T10:14:03.560Z,17.38
2023-05-15T10:16:37.230Z,17.40
2023-05-15T10:19:11.468Z,17.46
2023-05-15T10:21:45.226Z,17.50
2023-05-15T10:24:21.153Z,17.54
2023-05-15T10:26:56.177Z,17.54
2023-05-15T10:29:30.283Z,17.54
2023-05-15T10:32:04.557Z,17.56
2023-05-15T10:34:37.175Z,17.57
2023-05-15T10:37:10.791Z,17.63
2023-05-15T10:39:43.541Z,17.65
2023-05-15T10:42:16.845Z,17.66
2023-05-15T10:44:50.191Z,17.70
2023-05-15T10:47:22.790Z,17.62
2023-05-15T10:49:55.139Z,17.73
2023-05-15T10:52:27.927Z,17.74
2023-05-15T10:55:00.233Z,17.69
2023-05-15T10:57:33.165Z,17.79
2023-05-15T11:00:25.624Z,17.80
2023-05-15T11:02:58.912Z,17.78
2023-05-15T11:05:51.737Z,17.80
2023-05-15T11:08:29.903Z,17.82
2023-05-15T11:11:02.587Z,17.84
2023-05-15T11:14:01.729Z,17.84
2023-05-15T11:17:01.383Z,17.83
2023-05-15T11:19:38.687Z,17.81
2023-05-15T11:22:22.128Z,17.78
2023-05-15T11:24:56.603Z,17.80
2023-05-15T11:27:30.598Z,17.80
2023-05-15T11:30:14.996Z,17.81
2023-05-15T11:33:00.628Z,17.82
2023-05-15T11:35:36.378Z,17.86
2023-05-15T11:38:16.490Z,17.89
2023-05-15T11:40:52.895Z,17.92
2023-05-15T11:43:26.828Z,17.94
2023-05-15T11:46:06.713Z,17.86
2023-05-15T11:48:41.752Z,18.04
2023-05-15T11:51:20.051Z,18.09
2023-05-15T11:53:53.979Z,18.12
2023-05-15T11:56:28.638Z,18.14
2023-05-15T11:59:02.447Z,18.09
2023-05-15T12:01:45.594Z,18.17
2023-05-15T12:04:20.223Z,18.19
2023-05-15T12:06:52.794Z,18.17
2023-05-15T12:09:27.519Z,18.19
2023-05-15T12:11:58.620Z,18.19
2023-05-15T12:14:31.714Z,18.17
2023-05-15T12:17:04.488Z,18.19
2023-05-15T12:19:38.249Z,18.19
2023-05-15T12:22:10.629Z,18.14
2023-05-15T12:24:43.595Z,18.12
2023-05-15T12:27:16.394Z,18.21
2023-05-15T12:29:48.867Z,18.22
2023-05-15T12:32:21.872Z,18.23
2023-05-15T12:34:54.421Z,18.22
2023-05-15T12:37:26.942Z,18.25
2023-05-15T12:40:01.532Z,18.29
2023-05-15T12:42:38.854Z,18.34
2023-05-15T12:45:17.345Z,18.38
2023-05-15T12:47:51.623Z,18.43
2023-05-15T12:50:24.975Z,18.48
2023-05-15T12:52:59.581Z,18.51
2023-05-15T12:55:33.550Z,18.53
2023-05-15T12:58:08.669Z,18.52
2023-05-15T13:00:46.094Z,18.55
2023-05-15T13:03:21.254Z,18.56
2023-05-15T13:05:54.611Z,18.57
2023-05-15T13:08:27.141Z,18.58
2023-05-15T13:11:02.804Z,18.57
2023-05-15T13:13:48.848Z,18.59
2023-05-15T13:16:29.612Z,18.56
2023-05-15T13:19:02.134Z,18.62
2023-05-15T13:21:34.305Z,18.64
2023-05-15T13:24:09.938Z,18.65
2023-05-15T13:26:42.236Z,18.66
2023-05-15T13:29:14.270Z,18.67
2023-05-15T13:31:47.054Z,18.68
2023-05-15T13:34:19.693Z,18.70
2023-05-15T13:36:52.236Z,18.69
2023-05-15T13:39:24.501Z,18.67
2023-05-15T13:41:56.817Z,18.72
2023-05-15T13:44:29.008Z,18.72
2023-05-15T13:47:04.401Z,18.71
2023-05-15T13:49:36.480Z,18.67
2023-05-15T13:52:09.561Z,18.66
2023-05-15T13:54:41.809Z,18.65
2023-05-15T13:57:14.021Z,18.60
2023-05-15T13:59:46.043Z,18.58
2023-05-15T14:02:18.405Z,18.49
2023-05-15T14:04:51.129Z,18.55
2023-05-15T14:07:25.091Z,18.51
2023-05-15T14:09:57.427Z,18.48
2023-05-15T14:12:29.771Z,18.47
2023-05-15T14:15:03.761Z,18.46
2023-05-15T14:17:36.254Z,18.43
2023-05-15T14:20:11.514Z,18.41
2023-05-15T14:22:44.814Z,18.35
2023-05-15T14:25:16.958Z,18.33
2023-05-15T14:27:48.952Z,18.23
2023-05-15T14:30:23.054Z,18.08
2023-05-15T14:32:55.492Z,17.98
2023-05-15T14:35:27.788Z,17.93
2023-05-15T14:38:00.200Z,17.81
2023-05-15T14:40:32.552Z,17.64
2023-05-15T14:43:04.719Z,17.51
2023-05-15T14:45:37.241Z,17.32
2023-05-15T14:48:09.726Z,17.25
2023-05-15T14:50:42.873Z,17.26
2023-05-15T14:53:15.714Z,17.26
2023-05-15T14:55:47.927Z,17.22
2023-05-15T14:58:20.215Z,17.10
2023-05-15T15:00:52.632Z,17.08
2023-05-15T15:03:27.629Z,17.07
2023-05-15T15:06:00.950Z,17.01
2023-05-15T15:08:33.890Z,17.00
2023-05-15T15:11:07.854Z,17.04
2023-05-15T15:13:40.327Z,16.92
2023-05-15T15:16:12.673Z,16.98
2023-05-15T15:18:45.022Z,16.92
2023-05-15T15:21:17.443Z,16.90
2023-05-15T15:23:49.861Z,16.92
2023-05-15T15:26:22.752Z,16.95
2023-05-15T15:28:55.351Z,16.89
2023-05-15T15:31:27.862Z,16.82
2023-05-15T15:34:00.382Z,16.86
2023-05-15T15:36:32.729Z,16.86
2023-05-15T15:39:05.593Z,16.78
2023-05-15T15:41:40.349Z,16.85
2023-05-15T15:44:12.961Z,16.83
2023-05-15T15:46:45.419Z,16.73
2023-05-15T15:49:17.807Z,16.82
2023-05-15T15:51:50.267Z,16.77
2023-05-15T15:54:22.840Z,16.80
2023-05-15T15:56:55.574Z,16.89
2023-05-15T15:59:27.978Z,16.85
2023-05-15T16:02:00.329Z,16.81
2023-05-15T16:04:32.429Z,16.78
2023-05-15T16:07:05.186Z,16.77
2023-05-15T16:09:37.664Z,16.86
2023-05-15T16:12:10.150Z,16.88
2023-05-15T16:14:42.566Z,16.87
2023-05-15T16:17:14.800Z,16.88
2023-05-15T16:19:46.901Z,16.89
2023-05-15T16:22:23.022Z,16.81
2023-05-15T16:24:59.658Z,16.85
2023-05-15T16:27:32.279Z,16.82
2023-05-15T16:30:04.751Z,16.82
2023-05-15T16:32:37.101Z,16.87
2023-05-15T16:35:10.560Z,16.89
2023-05-15T16:37:42.968Z,16.85
2023-05-15T16:40:17.768Z,16.78
2023-05-15T16:42:49.904Z,16.84
2023-05-15T16:45:22.259Z,16.81
2023-05-15T16:47:54.489Z,16.87
2023-05-15T16:50:26.986Z,16.72
2023-05-15T16:52:59.694Z,16.81
2023-05-15T16:55:32.504Z,16.64
2023-05-15T16:58:04.819Z,16.61
2023-05-15T17:00:37.114Z,16.71
2023-05-15T17:03:09.844Z,16.76
2023-05-15T17:05:42.247Z,16.76
2023-05-15T17:08:14.585Z,16.72
2023-05-15T17:10:47.294Z,16.71
2023-05-15T17:13:19.500Z,16.67
2023-05-15T17:15:51.983Z,16.67
2023-05-15T17:18:24.326Z,16.62
2023-05-15T17:20:56.387Z,16.60
2023-05-15T17:23:28.814Z,16.69
2023-05-15T17:26:01.009Z,16.71
2023-05-15T17:28:33.406Z,16.69
2023-05-15T17:31:11.941Z,16.63
2023-05-15T17:33:44.193Z,16.62
2023-05-15T17:36:16.692Z,16.63
2023-05-15T17:38:48.734Z,16.67
2023-05-15T17:41:22.152Z,16.64
2023-05-15T17:43:54.579Z,16.65
2023-05-15T17:46:27.029Z,16.56
2023-05-15T17:48:59.425Z,16.54
2023-05-15T17:51:32.143Z,16.59
2023-05-15T17:54:04.416Z,16.56
2023-05-15T17:56:36.924Z,16.57
2023-05-15T17:59:09.125Z,16.55
2023-05-15T18:01:41.420Z,16.40
2023-05-15T18:04:13.857Z,16.48
2023-05-15T18:06:46.588Z,16.51
2023-05-15T18:09:23.155Z,16.52
2023-05-15T18:11:56.902Z,16.55
2023-05-15T18:14:29.319Z,16.46
2023-05-15T18:17:01.801Z,16.41
2023-05-15T18:19:34.817Z,16.49
2023-05-15T18:22:07.521Z,16.40
2023-05-15T18:24:40.048Z,16.37
2023-05-15T18:27:12.392Z,16.38
2023-05-15T18:29:45.641Z,16.23
2023-05-15T18:32:19.381Z,16.14
2023-05-15T18:34:51.702Z,16.08
2023-05-15T18:37:24.136Z,16.02
2023-05-15T18:39:58.762Z,16.05
2023-05-15T18:42:31.695Z,16.06
2023-05-15T18:45:04.309Z,16.06
2023-05-15T18:47:36.822Z,16.07
2023-05-15T18:50:10.729Z,16.10
2023-05-15T18:52:43.509Z,16.11
2023-05-15T18:55:15.921Z,16.12
2023-05-15T18:57:48.174Z,16.18
2023-05-15T19:00:36.524Z,16.18
2023-05-15T19:03:11.074Z,16.16
2023-05-15T19:05:43.512Z,16.21
2023-05-15T19:08:15.881Z,16.13
2023-05-15T19:10:51.623Z,16.20
2023-05-15T19:13:24.093Z,16.14
2023-05-15T19:15:56.624Z,16.09
2023-05-15T19:18:28.794Z,16.10
2023-05-15T19:21:01.917Z,16.14
2023-05-15T19:23:34.385Z,15.98
2023-05-15T19:26:06.686Z,15.95
2023-05-15T19:28:38.955Z,15.91
2023-05-15T19:31:20.497Z,15.93
2023-05-15T19:34:03.280Z,15.96
2023-05-15T19:36:35.711Z,15.75
2023-05-15T19:39:10.424Z,15.79
2023-05-15T19:41:43.782Z,15.90
2023-05-15T19:44:17.079Z,15.66
2023-05-15T19:46:49.598Z,15.70
2023-05-15T19:49:21.776Z,15.54
2023-05-15T19:51:54.144Z,15.66
2023-05-15T19:54:26.488Z,15.57
2023-05-15T19:57:02.669Z,15.58
2023-05-15T19:59:34.926Z,15.57
2023-05-15T20:02:10.670Z,15.86
2023-05-15T20:04:43.291Z,15.86
2023-05-15T20:07:15.568Z,15.58
2023-05-15T20:09:48.225Z,15.52
2023-05-15T20:12:20.597Z,15.49
2023-05-15T20:14:53.105Z,15.51
2023-05-15T20:17:25.731Z,15.49
2023-05-15T20:19:59.237Z,15.42
2023-05-15T20:22:31.539Z,15.51
2023-05-15T20:25:04.298Z,15.50
2023-05-15T20:27:36.948Z,15.63
2023-05-15T20:30:11.169Z,15.64
2023-05-15T20:32:43.683Z,15.68
2023-05-15T20:35:16.022Z,15.62
2023-05-15T20:37:48.715Z,15.63
2023-05-15T20:40:23.140Z,15.66
2023-05-15T20:42:57.046Z,15.68
2023-05-15T20:45:30.066Z,15.67
2023-05-15T20:48:02.490Z,15.65
2023-05-15T20:50:35.002Z,15.72
2023-05-15T20:53:07.540Z,15.74
2023-05-15T20:55:39.789Z,15.69
2023-05-15T20:58:12.119Z,15.67
2023-05-15T21:00:44.552Z,15.67
2023-05-15T21:03:16.887Z,15.66
2023-05-15T21:05:50.126Z,15.62
2023-05-15T21:08:22.380Z,15.56
2023-05-15T21:10:55.721Z,15.46
2023-05-15T21:13:30.519Z,15.43
2023-05-15T21:16:01.505Z,15.36
2023-05-15T21:18:33.638Z,15.44
2023-05-15T21:21:07.246Z,15.66
2023-05-15T21:23:39.535Z,15.63
2023-05-15T21:26:12.588Z,15.65
2023-05-15T21:28:44.730Z,15.61
2023-05-15T21:31:17.085Z,15.65
2023-05-15T21:33:49.270Z,15.64
2023-05-15T21:36:21.513Z,15.68
2023-05-15T21:38:53.756Z,15.52
2023-05-15T21:41:26.597Z,15.60
2023-05-15T21:43:58.874Z,15.50
2023-05-15T21:46:31.563Z,15.43
2023-05-15T21:49:04.010Z,15.45
2023-05-15T21:51:36.318Z,15.56
2023-05-15T21:54:08.349Z,15.48
2023-05-15T21:56:41.271Z,15.38
2023-05-15T21:59:14.521Z,15.36
2023-05-15T22:01:46.988Z,15.36
2023-05-15T22:04:19.284Z,15.43
2023-05-15T22:06:52.132Z,15.39
2023-05-15T22:09:24.149Z,15.41
2023-05-15T22:11:56.676Z,15.27
2023-05-15T22:14:28.874Z,15.23
2023-05-15T22:17:01.724Z,15.12
2023-05-15T22:19:34.265Z,15.04
2023-05-15T22:22:06.908Z,15.17
2023-05-15T22:24:39.559Z,15.18
2023-05-15T22:27:12.309Z,15.24
2023-05-15T22:29:44.741Z,15.28
2023-05-15T22:32:17.152Z,15.19
2023-05-15T22:35:08.324Z,15.20
2023-05-15T22:37:42.196Z,15.25
2023-05-15T22:40:16.247Z,15.26
2023-05-15T22:42:50.333Z,15.26
2023-05-15T22:45:22.952Z,15.13
2023-05-15T22:47:57.219Z,15.15
2023-05-15T22:50:29.717Z,15.27
2023-05-15T22:53:02.036Z,15.27
2023-05-15T22:55:34.200Z,15.20
2023-05-15T22:58:06.635Z,15.32
2023-05-15T23:00:39.144Z,15.29
2023-05-15T23:03:29.090Z,15.31
2023-05-15T23:06:01.345Z,15.25
2023-05-15T23:08:33.662Z,15.28
2023-05-15T23:11:06.099Z,15.24
2023-05-15T23:13:38.668Z,15.33
2023-05-15T23:16:11.072Z,15.21
2023-05-15T23:18:43.724Z,15.28
2023-05-15T23:21:16.142Z,15.25
2023-05-15T23:23:48.804Z,15.23
2023-05-15T23:26:22.144Z,15.12
2023-05-15T23:28:54.749Z,15.11
2023-05-15T23:31:28.141Z,14.82
2023-05-15T23:34:00.626Z,15.09
2023-05-15T23:36:32.759Z,15.15
2023-05-15T23:39:05.874Z,15.10
2023-05-15T23:41:38.458Z,15.12
2023-05-15T23:44:10.957Z,14.98
2023-05-15T23:46:43.520Z,14.93
2023-05-15T23:49:16.360Z,15.01
2023-05-15T23:51:48.493Z,15.10
2023-05-15T23:54:21.501Z,14.90
2023-05-15T23:56:53.705Z,14.83
2023-05-15T23:59:26.432Z,14.68
